sensor_id;sensor_type;location;lat;lon;timestamp;P1;durP1;ratioP1;P2;durP2;ratioP2
39308;SDS011;26019;47.510;19.122;2023-11-19T00:03:59;17.77;;;8.50;;
39308;SDS011;26019;47.510;19.122;2023-11-19T00:14:01;13.07;;;7.60;;
39308;SDS011;26019;47.510;19.122;2023-11-19T00:24:03;12.88;;;7.25;;
39308;SDS011;26019;47.510;19.122;2023-11-19T00:34:05;12.32;;;6.85;;
39308;SDS011;26019;47.510;19.122;2023-11-19T00:44:07;8.48;;;5.88;;
39308;SDS011;26019;47.510;19.122;2023-11-19T00:54:10;13.68;;;6.55;;
39308;SDS011;26019;47.510;19.122;2023-11-19T01:04:12;12.10;;;6.93;;
39308;SDS011;26019;47.510;19.122;2023-11-19T01:14:14;10.45;;;6.75;;
39308;SDS011;26019;47.510;19.122;2023-11-19T01:24:17;12.80;;;8.80;;
39308;SDS011;26019;47.510;19.122;2023-11-19T01:34:19;15.88;;;8.73;;
39308;SDS011;26019;47.510;19.122;2023-11-19T01:44:20;13.75;;;8.63;;
39308;SDS011;26019;47.510;19.122;2023-11-19T01:54:30;13.82;;;8.48;;
39308;SDS011;26019;47.510;19.122;2023-11-19T02:04:34;11.52;;;7.90;;
39308;SDS011;26019;47.510;19.122;2023-11-19T02:14:37;14.25;;;8.18;;
39308;SDS011;26019;47.510;19.122;2023-11-19T02:24:38;13.63;;;8.48;;
39308;SDS011;26019;47.510;19.122;2023-11-19T02:34:43;14.90;;;8.10;;
39308;SDS011;26019;47.510;19.122;2023-11-19T02:54:47;14.20;;;8.52;;
39308;SDS011;26019;47.510;19.122;2023-11-19T03:04:48;16.42;;;9.77;;
39308;SDS011;26019;47.510;19.122;2023-11-19T03:14:50;19.77;;;9.32;;
39308;SDS011;26019;47.510;19.122;2023-11-19T03:24:52;15.77;;;9.63;;
39308;SDS011;26019;47.510;19.122;2023-11-19T03:34:54;17.13;;;8.95;;
39308;SDS011;26019;47.510;19.122;2023-11-19T03:44:57;19.27;;;10.88;;
39308;SDS011;26019;47.510;19.122;2023-11-19T03:54:59;23.40;;;11.05;;
39308;SDS011;26019;47.510;19.122;2023-11-19T04:05:01;22.27;;;11.52;;
39308;SDS011;26019;47.510;19.122;2023-11-19T04:15:05;22.37;;;10.80;;
39308;SDS011;26019;47.510;19.122;2023-11-19T04:25:07;22.48;;;10.25;;
39308;SDS011;26019;47.510;19.122;2023-11-19T04:35:10;20.13;;;10.60;;
39308;SDS011;26019;47.510;19.122;2023-11-19T04:45:13;20.25;;;10.55;;
39308;SDS011;26019;47.510;19.122;2023-11-19T04:55:16;21.50;;;11.33;;
39308;SDS011;26019;47.510;19.122;2023-11-19T05:05:19;19.67;;;9.88;;
39308;SDS011;26019;47.510;19.122;2023-11-19T05:15:21;20.48;;;10.27;;
39308;SDS011;26019;47.510;19.122;2023-11-19T05:25:23;17.10;;;9.63;;
39308;SDS011;26019;47.510;19.122;2023-11-19T05:35:26;19.93;;;10.40;;
39308;SDS011;26019;47.510;19.122;2023-11-19T05:45:28;23.80;;;11.05;;
39308;SDS011;26019;47.510;19.122;2023-11-19T05:55:33;21.77;;;12.07;;
39308;SDS011;26019;47.510;19.122;2023-11-19T06:05:36;20.75;;;11.15;;
39308;SDS011;26019;47.510;19.122;2023-11-19T06:15:38;22.90;;;12.52;;
39308;SDS011;26019;47.510;19.122;2023-11-19T06:25:40;27.42;;;13.32;;
39308;SDS011;26019;47.510;19.122;2023-11-19T06:35:42;27.73;;;14.43;;
39308;SDS011;26019;47.510;19.122;2023-11-19T06:45:43;21.17;;;12.50;;
39308;SDS011;26019;47.510;19.122;2023-11-19T06:55:45;26.17;;;13.40;;
39308;SDS011;26019;47.510;19.122;2023-11-19T07:05:48;23.90;;;13.20;;
39308;SDS011;26019;47.510;19.122;2023-11-19T07:15:50;21.77;;;11.50;;
39308;SDS011;26019;47.510;19.122;2023-11-19T07:25:52;18.75;;;11.18;;
39308;SDS011;26019;47.510;19.122;2023-11-19T07:35:55;22.93;;;12.47;;
39308;SDS011;26019;47.510;19.122;2023-11-19T07:45:57;17.85;;;11.45;;
39308;SDS011;26019;47.510;19.122;2023-11-19T07:56:00;20.73;;;12.43;;
39308;SDS011;26019;47.510;19.122;2023-11-19T08:06:03;19.92;;;11.45;;
39308;SDS011;26019;47.510;19.122;2023-11-19T08:16:06;21.20;;;13.20;;
39308;SDS011;26019;47.510;19.122;2023-11-19T08:26:09;17.80;;;11.63;;
39308;SDS011;26019;47.510;19.122;2023-11-19T08:36:18;21.08;;;12.68;;
39308;SDS011;26019;47.510;19.122;2023-11-19T08:46:20;19.30;;;11.00;;
39308;SDS011;26019;47.510;19.122;2023-11-19T08:56:22;17.42;;;10.15;;
39308;SDS011;26019;47.510;19.122;2023-11-19T09:06:24;17.13;;;10.48;;
39308;SDS011;26019;47.510;19.122;2023-11-19T09:16:26;16.35;;;9.75;;
39308;SDS011;26019;47.510;19.122;2023-11-19T09:26:28;16.15;;;10.20;;
39308;SDS011;26019;47.510;19.122;2023-11-19T09:36:30;15.88;;;9.70;;
39308;SDS011;26019;47.510;19.122;2023-11-19T09:46:31;15.27;;;9.43;;
39308;SDS011;26019;47.510;19.122;2023-11-19T09:56:40;15.63;;;10.18;;
39308;SDS011;26019;47.510;19.122;2023-11-19T10:06:42;14.98;;;9.10;;
39308;SDS011;26019;47.510;19.122;2023-11-19T10:16:44;16.52;;;9.77;;
39308;SDS011;26019;47.510;19.122;2023-11-19T10:26:49;21.07;;;11.60;;
39308;SDS011;26019;47.510;19.122;2023-11-19T10:36:52;18.83;;;9.73;;
39308;SDS011;26019;47.510;19.122;2023-11-19T10:56:58;18.60;;;10.48;;
39308;SDS011;26019;47.510;19.122;2023-11-19T11:07:02;15.85;;;10.27;;
39308;SDS011;26019;47.510;19.122;2023-11-19T11:17:05;17.77;;;11.27;;
39308;SDS011;26019;47.510;19.122;2023-11-19T11:37:34;19.80;;;10.90;;
39308;SDS011;26019;47.510;19.122;2023-11-19T11:58:01;18.52;;;10.93;;
39308;SDS011;26019;47.510;19.122;2023-11-19T12:08:10;20.58;;;11.10;;
39308;SDS011;26019;47.510;19.122;2023-11-19T12:18:16;16.10;;;9.85;;
39308;SDS011;26019;47.510;19.122;2023-11-19T12:28:28;16.65;;;10.80;;
39308;SDS011;26019;47.510;19.122;2023-11-19T12:39:31;14.02;;;9.00;;
39308;SDS011;26019;47.510;19.122;2023-11-19T12:50:00;15.82;;;8.65;;
39308;SDS011;26019;47.510;19.122;2023-11-19T13:00:37;13.15;;;8.60;;
39308;SDS011;26019;47.510;19.122;2023-11-19T13:11:13;13.10;;;8.00;;
39308;SDS011;26019;47.510;19.122;2023-11-19T13:21:15;12.65;;;7.28;;
39308;SDS011;26019;47.510;19.122;2023-11-19T13:31:17;11.23;;;7.57;;
39308;SDS011;26019;47.510;19.122;2023-11-19T13:41:19;8.48;;;6.10;;
39308;SDS011;26019;47.510;19.122;2023-11-19T13:51:21;11.43;;;7.03;;
39308;SDS011;26019;47.510;19.122;2023-11-19T14:01:23;12.05;;;7.05;;
39308;SDS011;26019;47.510;19.122;2023-11-19T14:11:27;11.52;;;7.38;;
39308;SDS011;26019;47.510;19.122;2023-11-19T14:21:29;12.20;;;6.80;;
39308;SDS011;26019;47.510;19.122;2023-11-19T14:31:32;10.05;;;7.15;;
39308;SDS011;26019;47.510;19.122;2023-11-19T14:41:34;10.75;;;7.13;;
39308;SDS011;26019;47.510;19.122;2023-11-19T14:51:37;13.13;;;7.77;;
39308;SDS011;26019;47.510;19.122;2023-11-19T15:01:39;12.67;;;8.47;;
39308;SDS011;26019;47.510;19.122;2023-11-19T15:11:45;11.02;;;7.80;;
39308;SDS011;26019;47.510;19.122;2023-11-19T15:21:47;15.57;;;8.50;;
39308;SDS011;26019;47.510;19.122;2023-11-19T15:31:51;11.98;;;8.15;;
39308;SDS011;26019;47.510;19.122;2023-11-19T15:41:55;11.38;;;7.78;;
39308;SDS011;26019;47.510;19.122;2023-11-19T15:51:58;13.25;;;8.18;;
39308;SDS011;26019;47.510;19.122;2023-11-19T16:02:01;13.88;;;8.63;;
39308;SDS011;26019;47.510;19.122;2023-11-19T16:12:04;12.45;;;8.38;;
39308;SDS011;26019;47.510;19.122;2023-11-19T16:22:05;15.60;;;8.23;;
39308;SDS011;26019;47.510;19.122;2023-11-19T16:32:15;13.02;;;8.35;;
39308;SDS011;26019;47.510;19.122;2023-11-19T16:42:16;12.20;;;7.85;;
39308;SDS011;26019;47.510;19.122;2023-11-19T16:52:22;12.40;;;7.90;;
39308;SDS011;26019;47.510;19.122;2023-11-19T17:02:24;12.93;;;8.77;;
39308;SDS011;26019;47.510;19.122;2023-11-19T17:12:26;13.10;;;7.97;;
39308;SDS011;26019;47.510;19.122;2023-11-19T17:22:29;15.15;;;9.63;;
39308;SDS011;26019;47.510;19.122;2023-11-19T17:32:34;14.32;;;9.10;;
39308;SDS011;26019;47.510;19.122;2023-11-19T17:42:36;15.13;;;9.70;;
39308;SDS011;26019;47.510;19.122;2023-11-19T17:52:38;15.10;;;9.32;;
39308;SDS011;26019;47.510;19.122;2023-11-19T18:02:41;19.10;;;12.10;;
39308;SDS011;26019;47.510;19.122;2023-11-19T18:12:47;18.58;;;11.77;;
39308;SDS011;26019;47.510;19.122;2023-11-19T18:22:49;21.77;;;12.75;;
39308;SDS011;26019;47.510;19.122;2023-11-19T18:32:54;19.52;;;11.10;;
39308;SDS011;26019;47.510;19.122;2023-11-19T18:42:57;22.65;;;12.93;;
39308;SDS011;26019;47.510;19.122;2023-11-19T18:53:01;20.80;;;13.18;;
39308;SDS011;26019;47.510;19.122;2023-11-19T19:03:12;17.35;;;11.43;;
39308;SDS011;26019;47.510;19.122;2023-11-19T19:13:26;18.50;;;12.18;;
39308;SDS011;26019;47.510;19.122;2023-11-19T19:23:43;20.98;;;12.57;;
39308;SDS011;26019;47.510;19.122;2023-11-19T19:33:59;23.50;;;13.90;;
39308;SDS011;26019;47.510;19.122;2023-11-19T19:44:26;21.08;;;12.43;;
39308;SDS011;26019;47.510;19.122;2023-11-19T19:54:41;20.52;;;12.90;;
39308;SDS011;26019;47.510;19.122;2023-11-19T20:04:48;20.73;;;13.88;;
39308;SDS011;26019;47.510;19.122;2023-11-19T20:14:57;20.92;;;12.68;;
39308;SDS011;26019;47.510;19.122;2023-11-19T20:25:08;22.70;;;14.23;;
39308;SDS011;26019;47.510;19.122;2023-11-19T20:35:15;24.00;;;13.55;;
39308;SDS011;26019;47.510;19.122;2023-11-19T20:46:11;21.38;;;13.75;;
39308;SDS011;26019;47.510;19.122;2023-11-19T20:56:55;26.52;;;15.00;;
39308;SDS011;26019;47.510;19.122;2023-11-19T21:07:18;29.23;;;16.27;;
39308;SDS011;26019;47.510;19.122;2023-11-19T21:17:22;26.67;;;16.75;;
39308;SDS011;26019;47.510;19.122;2023-11-19T21:27:24;31.02;;;17.92;;
39308;SDS011;26019;47.510;19.122;2023-11-19T21:37:28;34.38;;;21.80;;
39308;SDS011;26019;47.510;19.122;2023-11-19T21:47:30;36.17;;;21.98;;
39308;SDS011;26019;47.510;19.122;2023-11-19T21:57:33;34.65;;;19.00;;
39308;SDS011;26019;47.510;19.122;2023-11-19T22:07:36;27.50;;;16.25;;
39308;SDS011;26019;47.510;19.122;2023-11-19T22:17:38;21.98;;;13.57;;
39308;SDS011;26019;47.510;19.122;2023-11-19T22:27:42;22.63;;;14.57;;
39308;SDS011;26019;47.510;19.122;2023-11-19T22:37:47;25.27;;;14.82;;
39308;SDS011;26019;47.510;19.122;2023-11-19T22:47:50;27.85;;;17.35;;
39308;SDS011;26019;47.510;19.122;2023-11-19T22:57:51;29.58;;;19.50;;
39308;SDS011;26019;47.510;19.122;2023-11-19T23:07:56;34.22;;;21.42;;
39308;SDS011;26019;47.510;19.122;2023-11-19T23:17:59;35.65;;;20.92;;
39308;SDS011;26019;47.510;19.122;2023-11-19T23:28:01;31.10;;;20.00;;
39308;SDS011;26019;47.510;19.122;2023-11-19T23:38:03;34.17;;;18.52;;
39308;SDS011;26019;47.510;19.122;2023-11-19T23:48:05;34.10;;;19.70;;
39308;SDS011;26019;47.510;19.122;2023-11-19T23:58:07;32.70;;;18.38;;
